sensor_id;sensor_type;location;lat;lon;timestamp;pressure;altitude;pressure_sealevel;temperature;humidity
66090;BME280;53113;45.602;11.904;2022-07-29T00:00:03;101243.71;;;24.75;53.40
66090;BME280;53113;45.602;11.904;2022-07-29T00:02:29;101246.95;;;24.76;53.68
66090;BME280;53113;45.602;11.904;2022-07-29T00:04:54;101249.15;;;24.82;53.75
66090;BME280;53113;45.602;11.904;2022-07-29T00:07:20;101242.71;;;24.85;53.60
66090;BME280;53113;45.602;11.904;2022-07-29T00:09:46;101238.73;;;24.87;53.08
66090;BME280;53113;45.602;11.904;2022-07-29T00:12:11;101232.20;;;24.89;52.23
66090;BME280;53113;45.602;11.904;2022-07-29T00:14:37;101224.45;;;24.91;51.53
66090;BME280;53113;45.602;11.904;2022-07-29T00:17:03;101224.23;;;24.91;51.07
66090;BME280;53113;45.602;11.904;2022-07-29T00:19:29;101228.05;;;24.91;50.88
66090;BME280;53113;45.602;11.904;2022-07-29T00:21:54;101222.39;;;24.89;50.76
66090;BME280;53113;45.602;11.904;2022-07-29T00:24:20;101217.47;;;24.86;50.82
66090;BME280;53113;45.602;11.904;2022-07-29T00:26:46;101202.98;;;24.80;50.99
66090;BME280;53113;45.602;11.904;2022-07-29T00:29:11;101204.85;;;24.74;50.78
66090;BME280;53113;45.602;11.904;2022-07-29T00:31:37;101197.66;;;24.67;51.00
66090;BME280;53113;45.602;11.904;2022-07-29T00:34:03;101193.70;;;24.58;50.91
66090;BME280;53113;45.602;11.904;2022-07-29T00:36:29;101180.19;;;24.49;50.79
66090;BME280;53113;45.602;11.904;2022-07-29T00:38:54;101160.01;;;24.40;51.07
66090;BME280;53113;45.602;11.904;2022-07-29T00:41:20;101149.87;;;24.31;51.50
66090;BME280;53113;45.602;11.904;2022-07-29T00:43:46;101149.91;;;24.21;52.08
66090;BME280;53113;45.602;11.904;2022-07-29T00:46:12;101143.88;;;24.09;52.56
66090;BME280;53113;45.602;11.904;2022-07-29T00:48:38;101139.50;;;23.95;52.96
66090;BME280;53113;45.602;11.904;2022-07-29T00:51:05;101123.14;;;23.81;53.40
66090;BME280;53113;45.602;11.904;2022-07-29T00:53:33;101107.84;;;23.69;53.78
66090;BME280;53113;45.602;11.904;2022-07-29T00:55:59;101082.75;;;23.59;54.04
66090;BME280;53113;45.602;11.904;2022-07-29T00:58:26;101074.14;;;23.48;54.19
66090;BME280;53113;45.602;11.904;2022-07-29T01:00:52;101083.35;;;23.40;54.50
66090;BME280;53113;45.602;11.904;2022-07-29T01:03:18;101079.19;;;23.32;54.79
66090;BME280;53113;45.602;11.904;2022-07-29T01:05:45;101087.02;;;23.24;54.96
66090;BME280;53113;45.602;11.904;2022-07-29T01:08:13;101080.20;;;23.18;55.28
66090;BME280;53113;45.602;11.904;2022-07-29T01:10:41;101065.52;;;23.15;55.64
66090;BME280;53113;45.602;11.904;2022-07-29T01:13:09;101069.42;;;23.14;55.74
66090;BME280;53113;45.602;11.904;2022-07-29T01:16:03;101091.34;;;23.13;55.94
66090;BME280;53113;45.602;11.904;2022-07-29T01:18:34;101082.86;;;23.10;56.43
66090;BME280;53113;45.602;11.904;2022-07-29T01:29:45;101068.37;;;23.02;57.55
66090;BME280;53113;45.602;11.904;2022-07-29T01:32:20;101064.66;;;23.00;57.75
66090;BME280;53113;45.602;11.904;2022-07-29T01:34:54;101061.45;;;22.97;57.89
66090;BME280;53113;45.602;11.904;2022-07-29T01:37:51;101068.83;;;22.98;58.15
66090;BME280;53113;45.602;11.904;2022-07-29T01:43:10;101087.85;;;23.00;58.60
66090;BME280;53113;45.602;11.904;2022-07-29T01:45:40;101085.17;;;22.99;58.88
66090;BME280;53113;45.602;11.904;2022-07-29T01:48:21;101084.01;;;22.98;58.87
66090;BME280;53113;45.602;11.904;2022-07-29T01:50:50;101092.70;;;22.95;59.10
66090;BME280;53113;45.602;11.904;2022-07-29T01:53:41;101097.23;;;22.93;58.89
66090;BME280;53113;45.602;11.904;2022-07-29T01:56:10;101100.98;;;22.88;59.16
66090;BME280;53113;45.602;11.904;2022-07-29T01:58:39;101099.01;;;22.86;59.24
66090;BME280;53113;45.602;11.904;2022-07-29T02:01:06;101099.00;;;22.82;59.36
66090;BME280;53113;45.602;11.904;2022-07-29T02:03:35;101095.00;;;22.78;59.42
66090;BME280;53113;45.602;11.904;2022-07-29T02:06:02;101094.83;;;22.76;59.50
66090;BME280;53113;45.602;11.904;2022-07-29T02:08:31;101087.84;;;22.74;59.63
66090;BME280;53113;45.602;11.904;2022-07-29T02:11:00;101081.93;;;22.73;59.84
66090;BME280;53113;45.602;11.904;2022-07-29T02:13:27;101084.25;;;22.72;59.89
66090;BME280;53113;45.602;11.904;2022-07-29T02:15:55;101087.60;;;22.71;60.03
66090;BME280;53113;45.602;11.904;2022-07-29T02:18:23;101091.10;;;22.67;60.08
66090;BME280;53113;45.602;11.904;2022-07-29T02:20:54;101089.77;;;22.65;60.17
66090;BME280;53113;45.602;11.904;2022-07-29T02:23:23;101094.30;;;22.62;60.11
66090;BME280;53113;45.602;11.904;2022-07-29T02:25:56;101094.27;;;22.58;59.92
66090;BME280;53113;45.602;11.904;2022-07-29T02:28:24;101099.85;;;22.54;59.80
66090;BME280;53113;45.602;11.904;2022-07-29T02:30:52;101096.45;;;22.49;59.62
66090;BME280;53113;45.602;11.904;2022-07-29T02:33:20;101100.08;;;22.44;59.53
66090;BME280;53113;45.602;11.904;2022-07-29T02:35:48;101105.67;;;22.41;59.42
66090;BME280;53113;45.602;11.904;2022-07-29T02:38:16;101105.30;;;22.36;59.43
66090;BME280;53113;45.602;11.904;2022-07-29T02:41:04;101107.13;;;22.34;59.36
66090;BME280;53113;45.602;11.904;2022-07-29T02:43:32;101107.60;;;22.30;59.33
66090;BME280;53113;45.602;11.904;2022-07-29T02:46:00;101107.60;;;22.26;59.39
66090;BME280;53113;45.602;11.904;2022-07-29T02:48:31;101106.70;;;22.25;59.31
66090;BME280;53113;45.602;11.904;2022-07-29T02:51:16;101102.95;;;22.25;59.33
66090;BME280;53113;45.602;11.904;2022-07-29T02:53:49;101100.63;;;22.25;59.43
66090;BME280;53113;45.602;11.904;2022-07-29T02:56:19;101098.00;;;22.25;59.50
66090;BME280;53113;45.602;11.904;2022-07-29T02:58:57;101096.32;;;22.24;59.53
66090;BME280;53113;45.602;11.904;2022-07-29T03:01:25;101099.23;;;22.24;59.43
66090;BME280;53113;45.602;11.904;2022-07-29T03:03:54;101099.80;;;22.22;59.50
66090;BME280;53113;45.602;11.904;2022-07-29T03:06:23;101096.20;;;22.21;59.38
66090;BME280;53113;45.602;11.904;2022-07-29T03:08:51;101092.98;;;22.17;59.37
66090;BME280;53113;45.602;11.904;2022-07-29T03:11:17;101093.84;;;22.15;59.42
66090;BME280;53113;45.602;11.904;2022-07-29T03:13:44;101090.33;;;22.11;59.44
66090;BME280;53113;45.602;11.904;2022-07-29T03:16:11;101094.48;;;22.08;59.46
66090;BME280;53113;45.602;11.904;2022-07-29T03:18:39;101103.23;;;22.03;59.69
66090;BME280;53113;45.602;11.904;2022-07-29T03:21:05;101108.20;;;22.01;59.86
66090;BME280;53113;45.602;11.904;2022-07-29T03:23:31;101109.47;;;21.98;60.02
66090;BME280;53113;45.602;11.904;2022-07-29T03:25:56;101114.81;;;21.99;60.18
66090;BME280;53113;45.602;11.904;2022-07-29T03:28:22;101115.69;;;21.99;60.15
66090;BME280;53113;45.602;11.904;2022-07-29T03:30:49;101115.27;;;21.99;60.15
66090;BME280;53113;45.602;11.904;2022-07-29T03:33:15;101112.81;;;21.99;60.08
66090;BME280;53113;45.602;11.904;2022-07-29T03:35:41;101115.56;;;21.97;60.03
66090;BME280;53113;45.602;11.904;2022-07-29T03:38:06;101116.10;;;21.97;60.08
66090;BME280;53113;45.602;11.904;2022-07-29T03:40:53;101118.42;;;21.94;60.03
66090;BME280;53113;45.602;11.904;2022-07-29T03:43:20;101118.05;;;21.91;60.04
66090;BME280;53113;45.602;11.904;2022-07-29T03:45:49;101119.73;;;21.88;59.86
66090;BME280;53113;45.602;11.904;2022-07-29T03:48:20;101117.36;;;21.83;59.98
66090;BME280;53113;45.602;11.904;2022-07-29T03:50:49;101114.50;;;21.79;59.87
66090;BME280;53113;45.602;11.904;2022-07-29T03:53:16;101109.54;;;21.74;60.13
66090;BME280;53113;45.602;11.904;2022-07-29T03:55:48;101111.65;;;21.71;60.17
66090;BME280;53113;45.602;11.904;2022-07-29T03:58:17;101111.47;;;21.71;60.20
66090;BME280;53113;45.602;11.904;2022-07-29T04:00:44;101112.63;;;21.70;60.13
66090;BME280;53113;45.602;11.904;2022-07-29T04:03:12;101115.59;;;21.68;60.21
66090;BME280;53113;45.602;11.904;2022-07-29T04:05:38;101116.40;;;21.65;60.22
66090;BME280;53113;45.602;11.904;2022-07-29T04:08:05;101113.80;;;21.61;60.34
66090;BME280;53113;45.602;11.904;2022-07-29T04:10:31;101116.17;;;21.59;60.44
66090;BME280;53113;45.602;11.904;2022-07-29T04:12:56;101120.99;;;21.57;60.71
66090;BME280;53113;45.602;11.904;2022-07-29T04:15:22;101124.66;;;21.53;60.95
66090;BME280;53113;45.602;11.904;2022-07-29T04:17:48;101118.04;;;21.50;61.12
66090;BME280;53113;45.602;11.904;2022-07-29T04:20:13;101120.16;;;21.49;61.37
66090;BME280;53113;45.602;11.904;2022-07-29T04:22:40;101125.15;;;21.50;61.49
66090;BME280;53113;45.602;11.904;2022-07-29T04:25:06;101130.20;;;21.52;61.57
66090;BME280;53113;45.602;11.904;2022-07-29T04:27:32;101133.89;;;21.53;61.69
66090;BME280;53113;45.602;11.904;2022-07-29T04:29:58;101133.44;;;21.52;61.82
66090;BME280;53113;45.602;11.904;2022-07-29T04:32:24;101136.33;;;21.52;62.02
66090;BME280;53113;45.602;11.904;2022-07-29T04:34:50;101138.17;;;21.52;62.14
66090;BME280;53113;45.602;11.904;2022-07-29T04:37:16;101136.63;;;21.51;62.28
66090;BME280;53113;45.602;11.904;2022-07-29T04:39:42;101134.23;;;21.53;62.36
66090;BME280;53113;45.602;11.904;2022-07-29T04:42:07;101130.39;;;21.56;62.47
66090;BME280;53113;45.602;11.904;2022-07-29T04:44:33;101127.59;;;21.60;62.71
66090;BME280;53113;45.602;11.904;2022-07-29T04:46:59;101131.38;;;21.63;62.83
66090;BME280;53113;45.602;11.904;2022-07-29T04:49:25;101131.94;;;21.68;62.86
66090;BME280;53113;45.602;11.904;2022-07-29T04:51:51;101133.56;;;21.71;62.82
66090;BME280;53113;45.602;11.904;2022-07-29T04:54:16;101134.38;;;21.75;62.94
66090;BME280;53113;45.602;11.904;2022-07-29T04:56:42;101133.91;;;21.79;63.01
66090;BME280;53113;45.602;11.904;2022-07-29T04:59:08;101137.77;;;21.83;63.00
66090;BME280;53113;45.602;11.904;2022-07-29T05:01:34;101137.76;;;21.89;62.97
66090;BME280;53113;45.602;11.904;2022-07-29T05:04:00;101142.10;;;21.97;62.90
66090;BME280;53113;45.602;11.904;2022-07-29T05:06:26;101147.31;;;22.04;62.86
66090;BME280;53113;45.602;11.904;2022-07-29T05:08:51;101150.90;;;22.13;62.75
66090;BME280;53113;45.602;11.904;2022-07-29T05:11:17;101153.92;;;22.19;62.83
66090;BME280;53113;45.602;11.904;2022-07-29T05:13:43;101160.12;;;22.26;62.83
66090;BME280;53113;45.602;11.904;2022-07-29T05:16:09;101161.11;;;22.32;62.71
66090;BME280;53113;45.602;11.904;2022-07-29T05:18:34;101161.39;;;22.38;62.74
66090;BME280;53113;45.602;11.904;2022-07-29T05:21:00;101154.89;;;22.43;62.63
66090;BME280;53113;45.602;11.904;2022-07-29T05:23:26;101158.87;;;22.50;62.65
66090;BME280;53113;45.602;11.904;2022-07-29T05:25:51;101157.13;;;22.59;62.54
66090;BME280;53113;45.602;11.904;2022-07-29T05:28:17;101159.92;;;22.67;62.43
66090;BME280;53113;45.602;11.904;2022-07-29T05:30:43;101158.17;;;22.76;62.43
66090;BME280;53113;45.602;11.904;2022-07-29T05:33:10;101161.77;;;22.87;62.39
66090;BME280;53113;45.602;11.904;2022-07-29T05:35:36;101159.34;;;22.96;62.34
66090;BME280;53113;45.602;11.904;2022-07-29T05:38:03;101164.60;;;23.06;62.06
66090;BME280;53113;45.602;11.904;2022-07-29T05:40:29;101165.23;;;23.14;62.14
66090;BME280;53113;45.602;11.904;2022-07-29T05:42:55;101169.02;;;23.23;61.92
66090;BME280;53113;45.602;11.904;2022-07-29T05:45:21;101164.44;;;23.29;61.81
66090;BME280;53113;45.602;11.904;2022-07-29T05:47:47;101168.19;;;23.39;61.76
66090;BME280;53113;45.602;11.904;2022-07-29T05:50:12;101170.78;;;23.47;61.64
66090;BME280;53113;45.602;11.904;2022-07-29T05:52:38;101172.77;;;23.53;61.52
66090;BME280;53113;45.602;11.904;2022-07-29T05:55:04;101178.77;;;23.61;61.50
66090;BME280;53113;45.602;11.904;2022-07-29T05:57:31;101181.38;;;23.69;61.34
66090;BME280;53113;45.602;11.904;2022-07-29T05:59:57;101183.40;;;23.80;61.03
66090;BME280;53113;45.602;11.904;2022-07-29T06:02:23;101180.66;;;23.90;60.89
66090;BME280;53113;45.602;11.904;2022-07-29T06:04:48;101180.23;;;24.00;60.54
66090;BME280;53113;45.602;11.904;2022-07-29T06:07:15;101185.45;;;24.13;60.19
66090;BME280;53113;45.602;11.904;2022-07-29T06:09:42;101189.67;;;24.23;59.84
66090;BME280;53113;45.602;11.904;2022-07-29T06:12:08;101191.39;;;24.32;59.72
66090;BME280;53113;45.602;11.904;2022-07-29T06:14:34;101195.83;;;24.40;59.41
66090;BME280;53113;45.602;11.904;2022-07-29T06:17:01;101195.62;;;24.50;58.98
66090;BME280;53113;45.602;11.904;2022-07-29T06:19:27;101196.46;;;24.59;58.76
66090;BME280;53113;45.602;11.904;2022-07-29T06:21:53;101198.55;;;24.68;58.77
66090;BME280;53113;45.602;11.904;2022-07-29T06:24:18;101195.02;;;24.77;58.30
66090;BME280;53113;45.602;11.904;2022-07-29T06:26:44;101200.14;;;24.87;58.32
66090;BME280;53113;45.602;11.904;2022-07-29T06:29:10;101197.44;;;24.95;58.00
66090;BME280;53113;45.602;11.904;2022-07-29T06:31:37;101202.00;;;25.08;57.76
66090;BME280;53113;45.602;11.904;2022-07-29T06:34:03;101200.09;;;25.19;57.46
66090;BME280;53113;45.602;11.904;2022-07-29T06:36:30;101207.23;;;25.30;57.00
66090;BME280;53113;45.602;11.904;2022-07-29T06:38:56;101201.90;;;25.38;56.33
66090;BME280;53113;45.602;11.904;2022-07-29T06:41:21;101201.74;;;25.51;55.89
66090;BME280;53113;45.602;11.904;2022-07-29T06:43:48;101199.84;;;25.63;55.65
66090;BME280;53113;45.602;11.904;2022-07-29T06:46:18;101204.30;;;25.75;55.19
66090;BME280;53113;45.602;11.904;2022-07-29T06:48:45;101203.48;;;25.87;54.88
66090;BME280;53113;45.602;11.904;2022-07-29T06:51:13;101200.25;;;26.00;54.41
66090;BME280;53113;45.602;11.904;2022-07-29T06:53:39;101201.83;;;26.16;53.95
66090;BME280;53113;45.602;11.904;2022-07-29T06:56:06;101204.34;;;26.31;53.58
66090;BME280;53113;45.602;11.904;2022-07-29T06:58:37;101209.97;;;26.51;53.29
66090;BME280;53113;45.602;11.904;2022-07-29T07:01:05;101208.25;;;26.66;53.01
66090;BME280;53113;45.602;11.904;2022-07-29T07:03:31;101212.17;;;26.85;52.74
66090;BME280;53113;45.602;11.904;2022-07-29T07:05:57;101211.77;;;27.04;52.29
66090;BME280;53113;45.602;11.904;2022-07-29T07:08:23;101209.98;;;27.19;51.76
66090;BME280;53113;45.602;11.904;2022-07-29T07:10:50;101209.09;;;27.36;51.48
66090;BME280;53113;45.602;11.904;2022-07-29T07:13:15;101210.89;;;27.54;50.88
66090;BME280;53113;45.602;11.904;2022-07-29T07:15:44;101205.70;;;27.72;50.64
66090;BME280;53113;45.602;11.904;2022-07-29T07:18:10;101207.58;;;27.92;50.55
66090;BME280;53113;45.602;11.904;2022-07-29T07:20:36;101201.70;;;28.11;49.91
66090;BME280;53113;45.602;11.904;2022-07-29T07:23:02;101201.09;;;28.31;49.51
66090;BME280;53113;45.602;11.904;2022-07-29T07:25:30;101196.30;;;28.49;49.08
66090;BME280;53113;45.602;11.904;2022-07-29T07:27:56;101193.39;;;28.73;48.80
66090;BME280;53113;45.602;11.904;2022-07-29T07:30:22;101192.05;;;28.93;48.23
66090;BME280;53113;45.602;11.904;2022-07-29T07:32:47;101189.28;;;29.14;47.58
66090;BME280;53113;45.602;11.904;2022-07-29T07:35:14;101192.25;;;29.36;47.01
66090;BME280;53113;45.602;11.904;2022-07-29T07:37:39;101191.89;;;29.62;46.73
66090;BME280;53113;45.602;11.904;2022-07-29T07:40:10;101195.67;;;29.84;45.99
66090;BME280;53113;45.602;11.904;2022-07-29T07:42:42;101194.60;;;30.05;45.32
66090;BME280;53113;45.602;11.904;2022-07-29T07:45:08;101193.15;;;30.25;44.44
66090;BME280;53113;45.602;11.904;2022-07-29T07:47:35;101192.88;;;30.45;43.77
66090;BME280;53113;45.602;11.904;2022-07-29T07:50:06;101189.14;;;30.65;43.40
66090;BME280;53113;45.602;11.904;2022-07-29T07:52:32;101189.06;;;30.85;43.02
66090;BME280;53113;45.602;11.904;2022-07-29T07:54:59;101186.27;;;31.04;42.72
66090;BME280;53113;45.602;11.904;2022-07-29T07:57:25;101183.22;;;31.21;42.26
66090;BME280;53113;45.602;11.904;2022-07-29T07:59:51;101187.91;;;31.41;41.53
66090;BME280;53113;45.602;11.904;2022-07-29T08:02:16;101194.77;;;31.60;41.04
66090;BME280;53113;45.602;11.904;2022-07-29T08:04:42;101196.68;;;31.77;40.52
66090;BME280;53113;45.602;11.904;2022-07-29T08:07:07;101198.58;;;31.93;40.08
66090;BME280;53113;45.602;11.904;2022-07-29T08:09:34;101197.36;;;32.09;39.76
66090;BME280;53113;45.602;11.904;2022-07-29T08:12:00;101197.75;;;32.26;39.44
66090;BME280;53113;45.602;11.904;2022-07-29T08:14:30;101202.09;;;32.43;39.14
66090;BME280;53113;45.602;11.904;2022-07-29T08:16:56;101197.71;;;32.61;38.49
66090;BME280;53113;45.602;11.904;2022-07-29T08:19:21;101195.42;;;32.81;37.76
66090;BME280;53113;45.602;11.904;2022-07-29T08:21:47;101198.32;;;33.03;37.30
66090;BME280;53113;45.602;11.904;2022-07-29T08:24:13;101199.74;;;33.22;37.15
66090;BME280;53113;45.602;11.904;2022-07-29T08:26:57;101198.92;;;33.50;36.33
66090;BME280;53113;45.602;11.904;2022-07-29T08:29:22;101201.52;;;33.70;35.69
66090;BME280;53113;45.602;11.904;2022-07-29T08:31:48;101200.44;;;33.88;35.28
66090;BME280;53113;45.602;11.904;2022-07-29T08:34:13;101202.06;;;34.07;34.91
66090;BME280;53113;45.602;11.904;2022-07-29T08:36:39;101196.42;;;34.22;34.58
66090;BME280;53113;45.602;11.904;2022-07-29T08:39:05;101200.21;;;34.35;34.36
66090;BME280;53113;45.602;11.904;2022-07-29T08:41:30;101196.88;;;34.45;33.73
66090;BME280;53113;45.602;11.904;2022-07-29T08:43:56;101195.16;;;34.53;33.28
66090;BME280;53113;45.602;11.904;2022-07-29T08:46:23;101193.13;;;34.58;33.08
66090;BME280;53113;45.602;11.904;2022-07-29T08:48:49;101195.05;;;34.63;32.97
66090;BME280;53113;45.602;11.904;2022-07-29T08:51:19;101191.16;;;34.69;32.99
66090;BME280;53113;45.602;11.904;2022-07-29T08:53:47;101188.75;;;34.72;32.83
66090;BME280;53113;45.602;11.904;2022-07-29T08:56:15;101182.75;;;34.74;32.39
66090;BME280;53113;45.602;11.904;2022-07-29T08:58:45;101177.30;;;34.77;32.43
66090;BME280;53113;45.602;11.904;2022-07-29T09:01:16;101180.08;;;34.79;32.22
66090;BME280;53113;45.602;11.904;2022-07-29T09:03:44;101179.77;;;34.83;32.41
66090;BME280;53113;45.602;11.904;2022-07-29T09:06:13;101179.56;;;34.85;32.01
66090;BME280;53113;45.602;11.904;2022-07-29T09:08:40;101176.83;;;34.89;31.84
66090;BME280;53113;45.602;11.904;2022-07-29T09:11:06;101172.98;;;34.93;31.43
66090;BME280;53113;45.602;11.904;2022-07-29T09:13:33;101176.77;;;34.99;31.59
66090;BME280;53113;45.602;11.904;2022-07-29T09:16:00;101178.25;;;35.08;31.83
66090;BME280;53113;45.602;11.904;2022-07-29T09:18:42;101177.86;;;35.18;31.26
66090;BME280;53113;45.602;11.904;2022-07-29T09:21:17;101177.62;;;35.29;30.72
66090;BME280;53113;45.602;11.904;2022-07-29T09:26:32;101168.52;;;35.53;30.34
66090;BME280;53113;45.602;11.904;2022-07-29T09:28:59;101169.13;;;35.66;30.44
66090;BME280;53113;45.602;11.904;2022-07-29T09:31:45;101165.23;;;35.80;30.10
66090;BME280;53113;45.602;11.904;2022-07-29T09:34:14;101163.41;;;35.95;29.86
66090;BME280;53113;45.602;11.904;2022-07-29T09:36:44;101162.10;;;36.10;29.86
66090;BME280;53113;45.602;11.904;2022-07-29T09:39:12;101159.45;;;36.28;29.57
66090;BME280;53113;45.602;11.904;2022-07-29T09:44:14;101160.08;;;36.62;29.10
66090;BME280;53113;45.602;11.904;2022-07-29T09:47:02;101154.23;;;36.76;28.80
66090;BME280;53113;45.602;11.904;2022-07-29T09:49:32;101151.94;;;36.84;27.88
66090;BME280;53113;45.602;11.904;2022-07-29T09:52:06;101153.88;;;36.88;27.20
66090;BME280;53113;45.602;11.904;2022-07-29T09:54:32;101152.27;;;36.94;27.30
66090;BME280;53113;45.602;11.904;2022-07-29T09:57:23;101146.50;;;36.98;26.98
66090;BME280;53113;45.602;11.904;2022-07-29T10:00:14;101147.77;;;37.09;26.81
66090;BME280;53113;45.602;11.904;2022-07-29T10:02:42;101149.75;;;37.21;27.06
66090;BME280;53113;45.602;11.904;2022-07-29T10:05:23;101143.85;;;37.36;27.01
66090;BME280;53113;45.602;11.904;2022-07-29T10:07:50;101144.25;;;37.55;26.81
66090;BME280;53113;45.602;11.904;2022-07-29T10:10:25;101143.07;;;37.75;26.68
66090;BME280;53113;45.602;11.904;2022-07-29T10:13:02;101141.02;;;37.94;26.39
66090;BME280;53113;45.602;11.904;2022-07-29T10:15:30;101140.65;;;38.14;25.95
66090;BME280;53113;45.602;11.904;2022-07-29T10:17:58;101140.70;;;38.32;26.10
66090;BME280;53113;45.602;11.904;2022-07-29T10:20:25;101138.83;;;38.48;25.94
66090;BME280;53113;45.602;11.904;2022-07-29T10:22:53;101136.77;;;38.65;25.96
66090;BME280;53113;45.602;11.904;2022-07-29T10:25:19;101134.27;;;38.78;25.52
66090;BME280;53113;45.602;11.904;2022-07-29T10:27:47;101133.17;;;38.92;25.30
66090;BME280;53113;45.602;11.904;2022-07-29T10:30:15;101127.55;;;39.03;24.89
66090;BME280;53113;45.602;11.904;2022-07-29T10:43:58;101108.59;;;39.58;23.89
66090;BME280;53113;45.602;11.904;2022-07-29T10:46:25;101105.60;;;39.69;23.79
66090;BME280;53113;45.602;11.904;2022-07-29T10:49:14;101105.66;;;39.79;23.49
66090;BME280;53113;45.602;11.904;2022-07-29T10:52:05;101108.71;;;39.90;23.46
66090;BME280;53113;45.602;11.904;2022-07-29T10:57:12;101106.50;;;40.17;23.08
66090;BME280;53113;45.602;11.904;2022-07-29T10:59:45;101101.11;;;40.32;23.04
66090;BME280;53113;45.602;11.904;2022-07-29T11:05:06;101085.38;;;40.69;22.53
66090;BME280;53113;45.602;11.904;2022-07-29T11:07:33;101079.02;;;40.82;22.64
66090;BME280;53113;45.602;11.904;2022-07-29T11:15:10;101073.73;;;41.13;22.09
66090;BME280;53113;45.602;11.904;2022-07-29T11:23:17;101064.04;;;41.39;21.78
66090;BME280;53113;45.602;11.904;2022-07-29T11:25:43;101065.43;;;41.46;21.64
66090;BME280;53113;45.602;11.904;2022-07-29T11:28:15;101063.64;;;41.53;21.57
66090;BME280;53113;45.602;11.904;2022-07-29T11:30:52;101065.98;;;41.65;21.45
66090;BME280;53113;45.602;11.904;2022-07-29T11:33:29;101066.44;;;41.75;21.18
66090;BME280;53113;45.602;11.904;2022-07-29T11:36:12;101063.11;;;41.87;21.17
66090;BME280;53113;45.602;11.904;2022-07-29T11:38:38;101060.48;;;42.03;20.99
66090;BME280;53113;45.602;11.904;2022-07-29T11:43:50;101060.14;;;42.37;20.55
66090;BME280;53113;45.602;11.904;2022-07-29T11:46:48;101062.54;;;42.55;20.48
66090;BME280;53113;45.602;11.904;2022-07-29T11:49:24;101052.59;;;42.79;20.09
66090;BME280;53113;45.602;11.904;2022-07-29T11:51:55;101050.77;;;42.92;19.21
66090;BME280;53113;45.602;11.904;2022-07-29T11:54:26;101053.05;;;42.93;18.87
66090;BME280;53113;45.602;11.904;2022-07-29T11:56:57;101047.27;;;42.96;19.15
66090;BME280;53113;45.602;11.904;2022-07-29T11:59:24;101045.85;;;42.98;18.69
66090;BME280;53113;45.602;11.904;2022-07-29T12:01:57;101048.44;;;42.97;18.32
66090;BME280;53113;45.602;11.904;2022-07-29T12:04:24;101043.82;;;42.99;18.48
66090;BME280;53113;45.602;11.904;2022-07-29T12:06:55;101037.92;;;42.97;18.43
66090;BME280;53113;45.602;11.904;2022-07-29T12:09:22;101037.50;;;42.98;18.39
66090;BME280;53113;45.602;11.904;2022-07-29T12:11:56;101036.98;;;43.01;18.40
66090;BME280;53113;45.602;11.904;2022-07-29T12:14:26;101037.89;;;43.02;18.27
66090;BME280;53113;45.602;11.904;2022-07-29T12:16:52;101043.36;;;43.04;18.30
66090;BME280;53113;45.602;11.904;2022-07-29T12:19:17;101038.75;;;43.06;18.11
66090;BME280;53113;45.602;11.904;2022-07-29T12:21:47;101035.92;;;43.13;18.13
66090;BME280;53113;45.602;11.904;2022-07-29T12:24:13;101033.05;;;43.23;18.31
66090;BME280;53113;45.602;11.904;2022-07-29T12:26:59;101028.30;;;43.33;18.14
66090;BME280;53113;45.602;11.904;2022-07-29T12:29:25;101035.23;;;43.47;18.09
66090;BME280;53113;45.602;11.904;2022-07-29T12:31:55;101034.04;;;43.56;18.00
66090;BME280;53113;45.602;11.904;2022-07-29T12:34:23;101038.66;;;43.66;17.91
66090;BME280;53113;45.602;11.904;2022-07-29T12:36:49;101033.95;;;43.72;17.98
66090;BME280;53113;45.602;11.904;2022-07-29T12:39:16;101030.95;;;43.78;17.66
66090;BME280;53113;45.602;11.904;2022-07-29T12:41:43;101028.62;;;43.87;17.54
66090;BME280;53113;45.602;11.904;2022-07-29T12:44:09;101028.07;;;43.99;17.60
66090;BME280;53113;45.602;11.904;2022-07-29T12:46:35;101023.46;;;44.09;17.37
66090;BME280;53113;45.602;11.904;2022-07-29T12:49:01;101021.85;;;44.20;17.38
66090;BME280;53113;45.602;11.904;2022-07-29T12:51:38;101013.54;;;44.30;17.30
66090;BME280;53113;45.602;11.904;2022-07-29T12:54:05;101013.95;;;44.42;17.18
66090;BME280;53113;45.602;11.904;2022-07-29T12:56:33;101012.12;;;44.50;17.08
66090;BME280;53113;45.602;11.904;2022-07-29T12:58:58;101009.04;;;44.53;17.01
66090;BME280;53113;45.602;11.904;2022-07-29T13:01:24;101003.73;;;44.52;16.69
66090;BME280;53113;45.602;11.904;2022-07-29T13:03:58;101006.08;;;44.53;16.85
66090;BME280;53113;45.602;11.904;2022-07-29T13:06:39;101005.79;;;44.58;17.03
66090;BME280;53113;45.602;11.904;2022-07-29T13:09:19;100993.79;;;44.64;16.77
66090;BME280;53113;45.602;11.904;2022-07-29T13:11:49;100984.19;;;44.73;16.82
66090;BME280;53113;45.602;11.904;2022-07-29T13:14:29;100980.29;;;44.83;16.92
66090;BME280;53113;45.602;11.904;2022-07-29T13:17:10;100983.10;;;44.96;16.90
66090;BME280;53113;45.602;11.904;2022-07-29T13:19:49;100978.27;;;45.02;16.45
66090;BME280;53113;45.602;11.904;2022-07-29T13:22:22;100973.30;;;45.04;16.33
66090;BME280;53113;45.602;11.904;2022-07-29T13:27:21;100962.33;;;45.06;16.17
66090;BME280;53113;45.602;11.904;2022-07-29T13:29:47;100963.35;;;45.06;16.16
66090;BME280;53113;45.602;11.904;2022-07-29T13:32:16;100955.73;;;45.01;16.07
66090;BME280;53113;45.602;11.904;2022-07-29T13:34:42;100950.77;;;44.96;15.99
66090;BME280;53113;45.602;11.904;2022-07-29T13:37:08;100951.44;;;44.95;16.21